createdAt,value
2022-11-20T11:04:44.142Z,5.85
2022-11-20T11:05:53.280Z,5.71
2022-11-20T11:07:06.371Z,6.04
2022-11-20T11:08:20.396Z,7.19
2022-11-20T11:09:33.096Z,8.25
2022-11-20T11:11:00.102Z,7.95
2022-11-20T11:12:07.250Z,7.00
2022-11-20T11:13:20.920Z,6.89
2022-11-20T11:14:25.438Z,6.97
2022-11-20T11:15:39.285Z,6.42
2022-11-20T11:16:52.256Z,6.24
2022-11-20T11:17:53.743Z,6.02
2022-11-20T11:19:12.563Z,5.78
2022-11-20T11:20:19.710Z,5.68
2022-11-20T11:21:25.047Z,5.61
2022-11-20T11:22:28.819Z,5.65
2022-11-20T11:23:32.899Z,5.70
2022-11-20T11:24:42.142Z,5.61
2022-11-20T11:30:21.559Z,7.08
2022-11-20T11:31:31.212Z,8.40
2022-11-20T11:32:32.578Z,8.12
2022-11-20T11:33:36.871Z,7.33
2022-11-20T11:34:38.300Z,8.71
2022-11-20T11:35:51.941Z,9.94
2022-11-20T11:36:58.372Z,10.06
2022-11-20T11:38:13.381Z,9.60
2022-11-20T11:39:20.985Z,9.75
2022-11-20T11:40:24.973Z,9.02
2022-11-20T11:41:34.331Z,10.95
2022-11-20T11:42:35.847Z,11.38
2022-11-20T11:43:57.483Z,11.32
2022-11-20T11:45:07.114Z,12.03
2022-11-20T11:46:20.721Z,10.85
2022-11-20T11:47:44.474Z,10.35
2022-11-20T11:48:57.078Z,11.55
2022-11-20T11:50:10.790Z,11.32
2022-11-20T11:51:12.206Z,11.24
2022-11-20T11:52:20.371Z,11.81
2022-11-20T11:53:24.577Z,11.76
2022-11-20T11:54:33.399Z,11.54
2022-11-20T11:55:41.497Z,12.18
2022-11-20T11:56:43.489Z,11.75
2022-11-20T11:58:02.890Z,10.49
2022-11-20T11:59:13.235Z,10.62
2022-11-20T12:00:17.106Z,10.43
2022-11-20T12:01:33.772Z,9.89
2022-11-20T12:02:57.377Z,9.79
2022-11-20T12:04:13.082Z,9.28
2022-11-20T12:05:20.551Z,9.95
2022-11-20T12:06:24.935Z,10.12
2022-11-20T12:07:47.887Z,10.11
2022-11-20T12:08:56.737Z,10.11
2022-11-20T12:09:59.484Z,10.25
2022-11-20T12:11:25.127Z,10.60
2022-11-20T12:12:40.200Z,10.89
2022-11-20T12:14:04.222Z,10.80
2022-11-20T12:15:11.812Z,11.23
2022-11-20T12:16:16.290Z,10.83
2022-11-20T12:17:18.776Z,10.78
2022-11-20T12:18:22.662Z,11.67
2022-11-20T12:19:24.946Z,10.81
2022-11-20T12:20:46.052Z,10.49
2022-11-20T12:21:50.865Z,10.44
2022-11-20T12:23:00.703Z,10.67
2022-11-20T12:24:23.109Z,10.67
2022-11-20T12:25:35.507Z,9.99
2022-11-20T12:26:39.622Z,9.22
2022-11-20T12:27:53.162Z,8.57
2022-11-20T12:29:10.623Z,8.96
2022-11-20T12:30:20.657Z,9.92
2022-11-20T12:31:49.824Z,10.26
2022-11-20T12:33:28.642Z,10.14
2022-11-20T12:34:32.953Z,9.32
2022-11-20T12:36:06.861Z,9.84
2022-11-20T12:37:23.706Z,9.15
2022-11-20T12:38:37.261Z,9.52
2022-11-20T12:39:53.857Z,9.79
2022-11-20T12:41:37.018Z,9.05
2022-11-20T12:43:10.996Z,8.40
2022-11-20T12:44:49.521Z,7.99
2022-11-20T12:46:23.697Z,8.04
2022-11-20T12:47:46.226Z,8.08
2022-11-20T12:48:53.668Z,7.63
2022-11-20T12:50:14.054Z,7.99
2022-11-20T12:51:43.716Z,7.58
2022-11-20T12:53:01.270Z,7.39
2022-11-20T12:54:36.045Z,7.58
2022-11-20T12:55:49.501Z,7.45
2022-11-20T12:57:48.427Z,8.07
2022-11-20T12:59:24.936Z,9.23
2022-11-20T13:00:27.049Z,9.36
2022-11-20T13:01:49.142Z,9.52
2022-11-20T13:03:08.720Z,9.28
2022-11-20T13:04:38.879Z,9.60
2022-11-20T13:06:01.840Z,9.77
2022-11-20T13:07:12.974Z,8.47
2022-11-20T13:08:39.695Z,7.74
2022-11-20T13:09:47.923Z,7.64
2022-11-20T13:11:03.682Z,7.77
2022-11-20T13:12:30.088Z,7.89
2022-11-20T13:13:57.577Z,7.48
2022-11-20T13:15:18.765Z,7.28
2022-11-20T13:16:23.163Z,7.06
2022-11-20T13:17:35.587Z,7.85
2022-11-20T13:18:42.592Z,8.20
2022-11-20T13:19:50.781Z,8.20
2022-11-20T13:20:52.675Z,7.67
2022-11-20T13:21:54.177Z,7.29
2022-11-20T13:22:58.214Z,7.05
2022-11-20T13:24:27.188Z,6.84
2022-11-20T13:25:36.969Z,6.88
2022-11-20T13:26:38.408Z,6.71
2022-11-20T13:27:48.925Z,6.62
2022-11-20T13:29:22.996Z,6.47
2022-11-20T13:30:26.896Z,6.40
2022-11-20T13:31:36.538Z,6.41
2022-11-20T13:32:48.539Z,6.20
2022-11-20T13:33:55.571Z,6.22
2022-11-20T13:34:59.787Z,6.18
2022-11-20T13:36:07.263Z,6.18
2022-11-20T13:37:35.370Z,6.14
2022-11-20T13:38:52.300Z,5.97
2022-11-20T13:39:53.682Z,6.15
2022-11-20T13:40:58.005Z,6.18
2022-11-20T13:42:24.745Z,6.18
2022-11-20T13:43:45.605Z,6.21
2022-11-20T13:44:56.201Z,6.25
2022-11-20T13:46:01.814Z,6.36
2022-11-20T13:47:03.300Z,6.35
2022-11-20T13:48:22.746Z,6.41
2022-11-20T13:49:55.397Z,6.58
2022-11-20T13:50:56.705Z,6.61
2022-11-20T13:52:13.809Z,6.73
2022-11-20T13:53:33.935Z,6.74
2022-11-20T13:54:44.768Z,6.83
2022-11-20T13:56:00.653Z,6.65
2022-11-20T13:57:16.628Z,6.70
2022-11-20T13:58:20.856Z,6.61
2022-11-20T13:59:25.152Z,6.54
2022-11-20T14:00:27.290Z,6.56
2022-11-20T14:01:35.533Z,6.46
2022-11-20T14:02:37.206Z,6.32
2022-11-20T14:05:02.706Z,6.22
2022-11-20T14:06:06.641Z,6.30
2022-11-20T14:07:08.233Z,6.29
2022-11-20T14:08:21.682Z,6.28
2022-11-20T14:09:36.120Z,6.19
2022-11-20T14:10:40.211Z,6.23
2022-11-20T14:11:48.843Z,6.21
2022-11-20T14:12:51.651Z,6.27
2022-11-20T14:13:55.192Z,6.23
2022-11-20T14:14:57.095Z,6.19
2022-11-20T14:15:59.255Z,6.15
2022-11-20T14:17:21.938Z,6.10
2022-11-20T14:18:23.371Z,5.98
2022-11-20T14:19:29.335Z,6.09
2022-11-20T14:20:32.253Z,6.08
2022-11-20T14:21:33.687Z,6.06
2022-11-20T14:22:35.232Z,6.08
2022-11-20T14:23:36.700Z,5.99
2022-11-20T14:24:38.244Z,6.12
2022-11-20T14:25:47.695Z,6.15
2022-11-20T14:26:49.267Z,6.01
2022-11-20T14:27:57.224Z,5.98
2022-11-20T14:28:59.211Z,6.07
2022-11-20T14:30:02.243Z,6.63
2022-11-20T14:31:03.673Z,6.87
2022-11-20T14:32:05.812Z,6.96
2022-11-20T14:33:07.260Z,7.09
2022-11-20T14:34:18.126Z,6.74
2022-11-20T14:35:26.433Z,6.67
2022-11-20T14:36:32.067Z,6.51
2022-11-20T14:37:37.683Z,6.31
2022-11-20T14:38:39.424Z,6.24
2022-11-20T14:39:50.262Z,6.17
2022-11-20T14:40:51.760Z,6.10
2022-11-20T14:41:54.380Z,6.07
2022-11-20T14:42:56.853Z,5.89
2022-11-20T14:44:00.019Z,6.10
2022-11-20T14:45:02.146Z,6.10
2022-11-20T14:46:06.607Z,6.09
2022-11-20T14:47:13.772Z,6.07
2022-11-20T14:48:16.580Z,5.92
2022-11-20T14:49:18.285Z,5.95
2022-11-20T14:50:23.804Z,5.92
2022-11-20T14:51:34.316Z,5.83
2022-11-20T14:52:35.664Z,5.80
2022-11-20T14:53:37.139Z,5.80
2022-11-20T14:54:46.863Z,5.83
2022-11-20T14:56:00.283Z,5.87
2022-11-20T14:57:04.472Z,5.78
2022-11-20T14:58:23.628Z,5.82
2022-11-20T14:59:33.280Z,5.64
2022-11-20T15:00:36.238Z,5.63
2022-11-20T15:01:38.507Z,5.65
2022-11-20T15:02:42.798Z,5.60
2022-11-20T15:03:44.292Z,5.51
2022-11-20T15:05:00.147Z,5.47
2022-11-20T15:06:02.383Z,5.44
2022-11-20T15:07:03.925Z,5.26
2022-11-20T15:08:10.081Z,5.37
2022-11-20T15:09:15.652Z,5.38
2022-11-20T15:10:19.777Z,5.32
2022-11-20T15:11:32.063Z,5.33
2022-11-20T15:12:36.830Z,5.29
2022-11-20T15:13:39.927Z,5.25
2022-11-20T15:14:41.283Z,5.21
2022-11-20T15:15:52.998Z,5.19
2022-11-20T15:16:55.212Z,5.10
2022-11-20T15:17:56.827Z,4.91
2022-11-20T15:18:58.345Z,5.13
2022-11-20T15:20:02.190Z,5.07
2022-11-20T15:21:07.309Z,5.07
2022-11-20T15:22:19.900Z,5.00
2022-11-20T15:23:21.325Z,5.05
2022-11-20T15:24:26.218Z,5.00
2022-11-20T15:25:29.067Z,4.74
2022-11-20T15:26:30.608Z,4.98
2022-11-20T15:27:32.041Z,4.98
2022-11-20T15:28:51.018Z,4.95
2022-11-20T15:29:52.628Z,4.93
